Time;durP1;ratioP1;P1;durP2;ratioP2;P2;SDS_P1;SDS_P2;PMS_P1;PMS_P2;Temp;Humidity;BMP_temperature;BMP_pressure;BME280_temperature;BME280_humidity;BME280_pressure;Samples;Min_cycle;Max_cycle;Signal;HPM_P1;HPM_P2
2022/11/10 00:01:51;;;;;;;37.40;26.90;;;;;;;8.16;71.64;95449.31;5066903;28;20033;-69
2022/11/10 00:04:17;;;;;;;37.95;27.13;;;;;;;8.18;71.51;95454.38;5046226;28;20040;-69
2022/11/10 00:06:43;;;;;;;37.45;25.55;;;;;;;8.24;71.75;95456.56;5052575;28;20091;-69
2022/11/10 00:09:09;;;;;;;44.53;26.48;;;;;;;8.19;71.69;95458.59;5069526;28;20024;-69
2022/11/10 00:11:34;;;;;;;40.88;25.65;;;;;;;8.15;71.78;95446.81;5068774;28;20371;-68
2022/11/10 00:17:03;;;;;;;41.13;26.70;;;;;;;8.10;72.03;95451.44;5069822;28;20035;-68
2022/11/10 00:19:32;;;;;;;42.08;26.73;;;;;;;7.95;72.83;95446.28;5070636;28;20040;-69
2022/11/10 00:21:58;;;;;;;37.58;26.63;;;;;;;8.09;72.21;95448.03;5051244;28;20113;-69
2022/11/10 00:24:23;;;;;;;42.15;25.92;;;;;;;8.25;71.50;95447.88;5052519;28;20039;-69
2022/11/10 00:26:49;;;;;;;39.45;25.48;;;;;;;8.22;71.30;95453.25;5067056;28;20029;-69
2022/11/10 00:29:15;;;;;;;34.65;23.50;;;;;;;8.31;70.56;95452.66;5049665;28;20029;-69
2022/11/10 00:31:40;;;;;;;33.65;23.40;;;;;;;8.26;70.20;95442.59;5061633;28;20540;-69
2022/11/10 00:34:07;;;;;;;36.80;24.35;;;;;;;8.21;69.42;95444.66;5052545;28;20425;-68
2022/11/10 00:36:33;;;;;;;34.97;24.08;;;;;;;8.28;69.24;95447.69;5059951;28;20037;-68
2022/11/10 00:38:59;;;;;;;35.47;25.05;;;;;;;8.12;69.81;95457.34;5049226;28;20029;-69
2022/11/10 00:41:24;;;;;;;37.25;24.85;;;;;;;8.06;69.59;95456.81;5023653;28;20028;-68
2022/11/10 00:43:49;;;;;;;36.92;24.85;;;;;;;8.03;69.52;95453.59;5053003;28;20036;-68
2022/11/10 00:46:15;;;;;;;35.97;24.50;;;;;;;8.02;69.14;95449.31;5050578;28;20032;-69
2022/11/10 00:48:40;;;;;;;37.50;24.35;;;;;;;8.07;69.14;95436.94;5053420;28;20028;-68
2022/11/10 00:51:06;;;;;;;34.25;22.95;;;;;;;7.97;69.30;95444.44;5048830;28;20040;-69
2022/11/10 00:53:31;;;;;;;37.22;24.23;;;;;;;7.79;70.34;95411.97;5050073;28;20042;-69
2022/11/10 00:55:57;;;;;;;31.02;22.60;;;;;;;7.95;70.36;95440.28;5048514;28;20041;-68
2022/11/10 00:58:22;;;;;;;34.40;24.17;;;;;;;7.90;70.43;95431.97;5062379;28;20479;-69
2022/11/10 01:00:48;;;;;;;35.50;23.75;;;;;;;7.83;71.79;95434.97;5053713;28;20491;-68
2022/11/10 01:03:14;;;;;;;37.05;23.88;;;;;;;7.79;71.87;95425.72;5052853;28;20025;-69
2022/11/10 01:05:39;;;;;;;36.05;24.27;;;;;;;7.87;71.61;95433.00;5036273;28;20037;-68
2022/11/10 01:08:05;;;;;;;34.78;23.85;;;;;;;7.86;71.78;95423.59;5052793;28;20040;-69
2022/11/10 01:10:30;;;;;;;35.08;23.98;;;;;;;7.89;71.89;95431.16;5052660;28;20032;-69
2022/11/10 01:12:56;;;;;;;36.72;24.27;;;;;;;7.83;72.24;95434.13;5054491;28;20028;-69
2022/11/10 01:15:21;;;;;;;36.80;24.33;;;;;;;7.89;71.88;95420.81;5053754;28;20388;-69
2022/11/10 01:17:47;;;;;;;31.67;22.88;;;;;;;7.88;71.82;95421.72;5036524;28;20048;-69
2022/11/10 01:20:12;;;;;;;33.20;23.15;;;;;;;7.91;71.55;95416.38;5038999;28;20047;-69
2022/11/10 01:22:39;;;;;;;34.95;24.73;;;;;;;7.92;71.85;95414.63;5052340;28;20467;-69
2022/11/10 01:25:05;;;;;;;33.33;23.27;;;;;;;7.95;71.74;95415.25;5053675;28;20029;-68
2022/11/10 01:27:30;;;;;;;38.58;23.70;;;;;;;7.85;71.97;95411.56;5053365;28;20037;-69
2022/11/10 01:29:56;;;;;;;32.67;22.85;;;;;;;7.88;71.74;95408.78;5052001;28;20032;-68
2022/11/10 01:32:21;;;;;;;32.53;22.40;;;;;;;7.65;71.97;95396.47;5052270;28;20067;-69
2022/11/10 01:34:47;;;;;;;31.08;23.10;;;;;;;7.84;72.39;95417.69;5053215;28;20040;-69
2022/11/10 01:37:12;;;;;;;33.90;22.45;;;;;;;7.83;72.15;95423.78;5073799;28;20040;-69
2022/11/10 01:39:38;;;;;;;32.22;22.05;;;;;;;7.78;72.25;95418.06;5051450;28;20509;-69
2022/11/10 01:42:03;;;;;;;33.42;22.30;;;;;;;7.64;72.55;95408.56;5052170;28;20091;-69
2022/11/10 01:44:29;;;;;;;29.73;21.55;;;;;;;7.60;72.21;95394.16;5059721;28;20039;-69
2022/11/10 01:46:54;;;;;;;31.20;22.10;;;;;;;7.82;72.31;95417.75;5052298;28;20060;-69
2022/11/10 01:49:21;;;;;;;32.40;22.33;;;;;;;7.90;71.91;95417.28;5054126;28;20561;-68
2022/11/10 01:52:17;;;;;;;31.42;21.77;;;;;;;7.80;71.85;95411.03;5053466;28;20253;-69
2022/11/10 01:54:45;;;;;;;32.25;21.23;;;;;;;7.87;71.35;95412.31;5052989;28;20077;-69
2022/11/10 01:57:11;;;;;;;33.38;22.52;;;;;;;7.91;71.53;95424.16;5019205;28;20406;-69
2022/11/10 01:59:39;;;;;;;33.33;22.52;;;;;;;7.92;71.34;95420.63;5068544;28;20033;-69
2022/11/10 02:02:19;;;;;;;32.45;22.67;;;;;;;7.87;71.41;95412.31;5066028;28;20455;-69
2022/11/10 02:04:45;;;;;;;29.90;20.50;;;;;;;7.74;71.75;95421.75;5049579;28;20154;-69
2022/11/10 02:07:10;;;;;;;29.52;21.10;;;;;;;7.81;71.42;95418.69;5073077;28;20628;-69
2022/11/10 02:09:36;;;;;;;31.42;21.60;;;;;;;7.65;71.28;95407.63;5053981;28;20029;-68
2022/11/10 02:12:01;;;;;;;29.60;20.63;;;;;;;7.63;71.70;95425.00;5035406;28;20029;-68
2022/11/10 02:14:26;;;;;;;31.45;21.33;;;;;;;7.64;72.12;95421.50;5042264;28;20036;-69
2022/11/10 02:16:52;;;;;;;31.35;21.02;;;;;;;7.66;71.77;95426.56;5057731;28;20567;-68
2022/11/10 02:19:20;;;;;;;29.90;20.48;;;;;;;7.65;71.76;95424.91;5060044;28;20478;-69
2022/11/10 02:21:46;;;;;;;31.52;22.05;;;;;;;7.61;71.75;95429.44;5053500;28;20052;-69
2022/11/10 02:24:11;;;;;;;29.25;20.63;;;;;;;7.44;72.02;95427.91;5045625;28;20031;-69
2022/11/10 02:26:41;;;;;;;30.75;21.48;;;;;;;7.31;72.59;95430.38;5052542;28;20039;-68
2022/11/10 02:29:06;;;;;;;30.48;20.75;;;;;;;7.14;73.15;95433.16;5070333;28;20029;-69
2022/11/10 02:31:32;;;;;;;30.33;21.02;;;;;;;7.25;72.86;95437.69;5072212;28;20040;-68
2022/11/10 02:33:57;;;;;;;32.67;21.13;;;;;;;7.31;72.36;95432.97;5070172;28;20430;-69
2022/11/10 02:36:22;;;;;;;30.00;21.00;;;;;;;7.14;72.90;95433.97;5067857;28;20052;-69
2022/11/10 02:38:48;;;;;;;32.95;22.38;;;;;;;7.23;72.54;95421.44;5059050;28;20371;-69
2022/11/10 02:41:13;;;;;;;27.98;20.75;;;;;;;7.28;72.54;95440.09;5037711;28;20033;-68
2022/11/10 02:43:39;;;;;;;28.65;19.80;;;;;;;7.30;72.29;95439.06;5071173;28;20028;-69
2022/11/10 02:46:05;;;;;;;30.08;21.23;;;;;;;7.29;71.81;95431.41;5052023;28;20450;-69
2022/11/10 02:48:30;;;;;;;28.45;20.23;;;;;;;7.42;70.97;95429.72;5064673;28;20039;-69
2022/11/10 02:50:55;;;;;;;27.20;19.25;;;;;;;7.31;71.50;95445.88;5055355;28;20499;-69
2022/11/10 02:53:21;;;;;;;30.10;20.55;;;;;;;7.28;71.76;95445.25;5071919;28;20016;-69
2022/11/10 02:55:46;;;;;;;33.17;20.52;;;;;;;7.15;71.87;95445.97;5071792;28;20040;-69
2022/11/10 02:58:12;;;;;;;29.52;20.65;;;;;;;7.22;71.74;95445.63;5067803;28;20038;-69
2022/11/10 03:00:37;;;;;;;29.13;20.40;;;;;;;7.25;71.47;95446.25;5071793;28;20506;-69
2022/11/10 03:03:03;;;;;;;28.15;20.02;;;;;;;7.01;71.73;95434.78;5070463;28;20021;-69
2022/11/10 03:05:29;;;;;;;30.80;20.70;;;;;;;7.00;71.91;95452.03;5061677;28;20037;-68
2022/11/10 03:07:56;;;;;;;26.80;19.13;;;;;;;6.99;71.79;95452.94;5070722;28;20098;-68
2022/11/10 03:10:22;;;;;;;27.38;20.23;;;;;;;6.94;72.02;95450.66;5070414;28;20032;-69
2022/11/10 03:12:47;;;;;;;31.17;20.17;;;;;;;6.82;72.46;95453.09;5070269;28;20036;-69
2022/11/10 03:15:13;;;;;;;28.45;19.98;;;;;;;6.87;72.54;95451.91;5062942;28;20427;-68
2022/11/10 03:17:39;;;;;;;29.02;19.95;;;;;;;6.84;72.30;95453.84;5071874;28;20797;-69
2022/11/10 03:20:04;;;;;;;27.85;18.73;;;;;;;6.72;72.36;95442.50;5056658;28;20024;-69
2022/11/10 03:22:30;;;;;;;27.02;19.02;;;;;;;6.71;72.21;95452.00;5051839;28;20053;-69
2022/11/10 03:24:55;;;;;;;28.65;19.13;;;;;;;6.59;72.46;95444.94;5055816;28;20040;-68
2022/11/10 03:27:21;;;;;;;28.23;19.55;;;;;;;6.34;73.23;95458.38;5050111;28;20032;-68
2022/11/10 03:29:46;;;;;;;27.27;19.50;;;;;;;6.36;73.00;95463.47;5066453;28;20574;-69
2022/11/10 03:32:12;;;;;;;27.08;19.45;;;;;;;6.49;72.76;95464.44;5071244;28;20057;-69
2022/11/10 03:34:37;;;;;;;26.20;19.05;;;;;;;6.41;72.69;95464.88;5060776;28;20111;-69
2022/11/10 03:37:03;;;;;;;24.23;18.23;;;;;;;6.50;72.32;95463.53;5053503;28;20387;-69
2022/11/10 03:39:28;;;;;;;27.48;19.00;;;;;;;6.49;72.41;95467.00;5071061;28;20035;-68
2022/11/10 03:41:53;;;;;;;30.15;19.23;;;;;;;6.45;72.20;95465.53;5085432;28;20094;-68
2022/11/10 03:44:19;;;;;;;26.65;18.38;;;;;;;6.41;72.40;95467.47;5051043;28;20056;-69
2022/11/10 03:46:44;;;;;;;24.40;18.30;;;;;;;6.32;72.42;95470.53;5067680;28;20478;-69
2022/11/10 03:49:10;;;;;;;27.20;17.92;;;;;;;6.25;72.39;95467.47;5069814;28;20456;-68
2022/11/10 03:51:35;;;;;;;26.33;18.38;;;;;;;6.32;72.30;95470.53;5051277;28;20473;-68
2022/11/10 03:54:01;;;;;;;25.90;18.40;;;;;;;6.18;72.54;95452.41;5050809;28;20036;-69
2022/11/10 03:56:26;;;;;;;26.42;17.92;;;;;;;6.05;73.25;95467.75;5049828;28;20037;-68
2022/11/10 03:58:51;;;;;;;25.73;18.02;;;;;;;6.14;72.99;95476.72;5033098;28;20025;-68
2022/11/10 04:01:17;;;;;;;26.30;17.48;;;;;;;6.10;73.19;95477.78;5066252;28;20435;-69
2022/11/10 04:03:42;;;;;;;26.83;18.23;;;;;;;6.09;72.91;95474.41;5052838;28;20028;-68
2022/11/10 04:08:59;;;;;;;24.80;17.73;;;;;;;5.90;73.79;95478.84;5049746;28;20068;-68
2022/11/10 04:16:54;;;;;;;23.95;17.13;;;;;;;5.96;73.45;95479.41;5069756;28;20121;-68
2022/11/10 04:19:19;;;;;;;28.58;18.00;;;;;;;5.93;73.39;95484.69;5045432;28;20503;-68
2022/11/10 04:21:45;;;;;;;27.75;19.70;;;;;;;5.73;73.78;95474.59;5034209;28;20399;-68
2022/11/10 04:24:10;;;;;;;25.50;17.95;;;;;;;5.58;74.38;95455.63;5050782;28;20449;-68
2022/11/10 04:26:39;;;;;;;26.58;18.35;;;;;;;5.73;74.17;95490.91;5049431;28;20037;-68
2022/11/10 04:29:07;;;;;;;28.35;18.95;;;;;;;5.68;74.58;95484.31;5049531;28;20442;-70
2022/11/10 04:31:34;;;;;;;25.63;17.92;;;;;;;5.68;74.49;95490.31;5033651;28;20132;-69
2022/11/10 04:33:59;;;;;;;23.75;17.17;;;;;;;5.57;74.65;95492.59;5053484;28;20029;-70
2022/11/10 04:36:26;;;;;;;25.77;17.60;;;;;;;5.56;74.92;95502.09;5066839;28;20039;-70
2022/11/10 04:38:54;;;;;;;28.45;18.83;;;;;;;5.62;74.65;95495.78;5038901;28;20025;-69
2022/11/10 04:41:19;;;;;;;26.27;18.52;;;;;;;5.53;74.89;95486.78;5053571;28;20043;-69
2022/11/10 04:43:45;;;;;;;28.73;19.17;;;;;;;5.59;74.84;95490.78;5053349;28;20406;-70
2022/11/10 04:46:38;;;;;;;25.40;18.13;;;;;;;5.58;74.56;95478.84;5051385;28;20330;-70
2022/11/10 04:49:04;;;;;;;25.80;17.73;;;;;;;5.70;74.50;95496.22;5065584;28;20359;-70
2022/11/10 04:51:31;;;;;;;27.60;18.77;;;;;;;5.67;74.36;95492.97;5063618;28;20048;-70
2022/11/10 04:53:57;;;;;;;24.23;16.88;;;;;;;5.67;74.34;95488.66;5071377;28;20418;-69
2022/11/10 04:56:22;;;;;;;27.75;18.92;;;;;;;5.67;74.24;95498.13;5069607;28;20028;-70
2022/11/10 04:58:48;;;;;;;23.80;17.10;;;;;;;5.65;74.26;95490.47;5070370;28;20036;-68
2022/11/10 05:01:16;;;;;;;25.77;17.63;;;;;;;5.64;74.53;95495.72;5061340;28;20033;-67
2022/11/10 05:03:41;;;;;;;25.77;18.15;;;;;;;5.49;75.09;95500.75;5052701;28;20395;-68
2022/11/10 05:06:07;;;;;;;24.70;17.58;;;;;;;5.48;74.93;95495.69;5069381;28;20033;-68
2022/11/10 05:08:33;;;;;;;26.30;17.77;;;;;;;5.44;74.89;95486.44;5064519;28;20032;-68
2022/11/10 05:10:58;;;;;;;26.95;17.30;;;;;;;5.46;75.05;95489.75;5055604;28;20051;-68
2022/11/10 05:13:24;;;;;;;27.05;17.42;;;;;;;5.52;75.08;95492.88;5050085;28;20399;-68
2022/11/10 05:15:50;;;;;;;25.65;17.90;;;;;;;5.45;75.23;95494.09;5053999;28;20032;-68
2022/11/10 05:18:16;;;;;;;24.08;17.73;;;;;;;5.27;75.49;95483.00;5036028;28;20064;-68
2022/11/10 05:20:41;;;;;;;24.92;17.48;;;;;;;5.19;76.14;95498.00;5046175;28;20059;-67
2022/11/10 05:25:50;;;;;;;25.73;17.17;;;;;;;5.24;76.10;95513.25;5045022;28;20059;-67
2022/11/10 05:28:16;;;;;;;24.65;16.42;;;;;;;5.34;75.68;95502.38;5069558;28;20486;-67
2022/11/10 05:30:41;;;;;;;25.55;17.02;;;;;;;5.42;75.36;95506.31;5045892;28;20770;-68
2022/11/10 05:33:07;;;;;;;25.50;17.10;;;;;;;5.53;74.99;95516.91;5055178;28;20029;-68
2022/11/10 05:35:33;;;;;;;21.63;16.05;;;;;;;5.57;74.83;95521.81;5035605;28;20479;-68
2022/11/10 05:37:58;;;;;;;25.77;17.27;;;;;;;5.45;74.99;95526.75;5035740;28;20025;-68
2022/11/10 05:40:24;;;;;;;25.48;17.05;;;;;;;5.46;75.06;95526.69;5064188;28;20021;-68
2022/11/10 05:42:53;;;;;;;23.40;16.25;;;;;;;5.40;75.29;95527.00;5051383;28;20036;-68
2022/11/10 05:45:22;;;;;;;22.25;15.98;;;;;;;5.35;75.39;95524.66;5064208;28;20041;-67
2022/11/10 05:47:48;;;;;;;21.00;15.77;;;;;;;5.34;75.33;95522.97;5055262;28;20032;-67
2022/11/10 05:50:13;;;;;;;22.33;15.55;;;;;;;5.33;75.46;95528.22;5054929;28;20036;-68
2022/11/10 05:52:44;;;;;;;21.90;15.65;;;;;;;5.40;75.28;95532.13;5072056;28;20039;-67
2022/11/10 05:55:10;;;;;;;23.08;16.02;;;;;;;5.36;75.56;95533.22;5055351;28;20043;-68
2022/11/10 05:57:35;;;;;;;23.55;15.65;;;;;;;5.20;75.96;95534.91;5072071;28;20406;-68
2022/11/10 06:00:02;;;;;;;22.67;16.13;;;;;;;5.18;76.00;95531.56;5072102;28;20482;-68
2022/11/10 06:02:27;;;;;;;22.90;15.77;;;;;;;5.30;75.69;95536.94;5035495;28;20109;-68
2022/11/10 06:04:53;;;;;;;23.95;16.40;;;;;;;5.08;76.12;95532.03;5061938;28;20491;-68
2022/11/10 06:07:18;;;;;;;24.13;16.13;;;;;;;5.19;75.91;95533.25;5042323;28;20036;-69
2022/11/10 06:09:44;;;;;;;21.10;15.15;;;;;;;5.29;75.78;95543.03;5055916;28;20024;-68
2022/11/10 06:12:09;;;;;;;23.10;16.38;;;;;;;5.32;75.67;95547.16;5072904;28;20033;-68
2022/11/10 06:14:35;;;;;;;21.13;15.75;;;;;;;5.20;75.69;95546.03;5051619;28;20562;-68
2022/11/10 06:17:00;;;;;;;21.33;15.82;;;;;;;5.14;76.00;95548.91;5035575;28;20429;-68
2022/11/10 06:19:26;;;;;;;22.65;16.10;;;;;;;5.38;75.65;95552.03;5049767;28;20032;-68
2022/11/10 06:21:51;;;;;;;23.02;15.57;;;;;;;5.30;75.98;95554.97;5061294;28;20028;-68
2022/11/10 06:24:17;;;;;;;22.98;16.58;;;;;;;5.32;75.69;95547.16;5080152;28;20043;-69
2022/11/10 06:26:42;;;;;;;22.40;15.45;;;;;;;5.54;75.36;95560.66;5064057;28;20040;-68
2022/11/10 06:29:08;;;;;;;22.80;15.52;;;;;;;5.59;74.98;95560.38;5059063;28;20295;-68
2022/11/10 06:31:33;;;;;;;23.42;14.82;;;;;;;5.54;74.98;95559.78;5060572;28;20051;-68
2022/11/10 06:33:59;;;;;;;23.08;16.17;;;;;;;5.57;74.89;95570.78;5063956;28;20036;-68
2022/11/10 06:36:24;;;;;;;23.38;16.10;;;;;;;5.50;74.84;95558.28;5044968;28;20040;-69
2022/11/10 06:38:49;;;;;;;20.33;15.70;;;;;;;5.80;74.39;95581.66;5065391;28;20074;-69
2022/11/10 06:41:15;;;;;;;22.38;16.10;;;;;;;5.87;74.36;95588.16;5066062;28;20086;-68
2022/11/10 06:43:40;;;;;;;20.42;15.52;;;;;;;5.90;73.71;95582.00;5065022;28;20483;-68
2022/11/10 06:46:06;;;;;;;21.23;15.68;;;;;;;5.82;74.03;95592.72;5057286;28;20032;-69
2022/11/10 06:48:31;;;;;;;20.90;15.60;;;;;;;5.89;74.32;95598.41;5058630;28;20025;-68
2022/11/10 06:51:00;;;;;;;21.45;14.75;;;;;;;5.95;73.92;95595.53;5057750;28;20043;-68
2022/11/10 06:53:26;;;;;;;21.15;15.00;;;;;;;5.94;73.91;95591.28;5045234;28;20082;-69
2022/11/10 06:55:51;;;;;;;19.17;14.43;;;;;;;6.03;73.98;95608.88;5046029;28;20072;-70
2022/11/10 06:58:17;;;;;;;18.27;14.30;;;;;;;6.17;73.68;95596.06;5040891;28;20033;-70
2022/11/10 07:00:43;;;;;;;19.95;15.15;;;;;;;6.38;73.38;95606.16;5051478;28;20040;-68
2022/11/10 07:03:11;;;;;;;21.67;15.60;;;;;;;6.31;73.16;95602.25;5069178;28;20398;-68
2022/11/10 07:05:36;;;;;;;20.13;14.52;;;;;;;6.37;73.50;95601.91;5018065;28;20068;-68
2022/11/10 07:08:09;;;;;;;21.80;15.32;;;;;;;6.42;73.14;95600.75;5049021;28;20068;-68
2022/11/10 07:10:34;;;;;;;20.58;15.70;;;;;;;6.55;73.05;95606.09;5070278;28;20055;-69
2022/11/10 07:13:01;;;;;;;18.95;14.63;;;;;;;6.72;72.33;95603.41;5051779;28;20067;-68
2022/11/10 07:15:26;;;;;;;19.02;15.27;;;;;;;7.18;71.50;95600.00;5068709;28;20055;-69
2022/11/10 07:17:52;;;;;;;23.23;15.13;;;;;;;7.70;69.58;95596.16;5067567;28;20484;-68
2022/11/10 07:20:17;;;;;;;21.35;14.80;;;;;;;8.15;68.20;95599.50;5056743;28;20037;-68
2022/11/10 07:22:43;;;;;;;23.70;15.80;;;;;;;8.93;65.83;95598.06;5047542;28;20047;-68
2022/11/10 07:25:09;;;;;;;20.02;13.95;;;;;;;9.49;63.56;95599.69;5046487;28;20068;-69
2022/11/10 07:27:34;;;;;;;18.55;14.10;;;;;;;9.98;61.87;95593.81;5062821;28;20055;-69
2022/11/10 07:30:00;;;;;;;16.95;13.45;;;;;;;10.64;59.81;95597.03;5065256;28;20489;-68
2022/11/10 07:32:25;;;;;;;17.50;13.70;;;;;;;11.12;58.15;95604.88;5066409;28;20076;-69
2022/11/10 07:34:50;;;;;;;17.45;12.85;;;;;;;11.92;56.06;95599.81;5066977;28;20028;-69
2022/11/10 07:37:16;;;;;;;16.65;13.57;;;;;;;12.58;54.13;95596.53;5061463;28;20044;-68
2022/11/10 07:39:41;;;;;;;15.25;12.95;;;;;;;12.70;52.90;95599.03;5049670;28;20031;-69
2022/11/10 07:42:07;;;;;;;29.23;20.40;;;;;;;12.83;52.49;95590.22;5066620;28;20047;-69
2022/11/10 07:44:32;;;;;;;29.90;21.00;;;;;;;12.07;54.34;95598.66;5065806;28;20025;-68
2022/11/10 07:46:58;;;;;;;28.10;21.45;;;;;;;11.91;55.49;95597.34;5048161;28;20113;-68
2022/11/10 07:49:24;;;;;;;28.17;21.50;;;;;;;11.67;56.11;95579.16;5065427;28;20091;-69
2022/11/10 07:51:49;;;;;;;28.33;21.13;;;;;;;11.29;56.97;95598.47;5066962;28;20024;-70
2022/11/10 07:54:14;;;;;;;25.95;20.30;;;;;;;10.98;57.45;95587.69;5070275;28;20029;-70
2022/11/10 07:56:41;;;;;;;29.42;20.83;;;;;;;10.86;58.23;95601.53;5069539;28;20040;-70
2022/11/10 07:59:06;;;;;;;27.63;20.63;;;;;;;10.91;58.35;95599.44;5068801;28;20567;-70
2022/11/10 08:01:32;;;;;;;23.65;18.40;;;;;;;10.99;58.52;95601.50;5052188;28;20032;-70
2022/11/10 08:03:58;;;;;;;22.98;15.30;;;;;;;11.22;58.51;95587.66;5068932;28;20580;-70
2022/11/10 08:06:24;;;;;;;20.27;15.65;;;;;;;11.37;58.22;95586.53;5051868;28;20028;-70
2022/11/10 08:08:49;;;;;;;21.25;15.15;;;;;;;11.43;58.09;95587.88;5052732;28;20028;-70
2022/11/10 08:11:15;;;;;;;19.15;15.75;;;;;;;11.57;57.54;95592.03;5069677;28;20036;-69
2022/11/10 08:13:40;;;;;;;21.83;16.33;;;;;;;11.63;57.68;95595.00;5069503;28;20039;-69
2022/11/10 08:16:06;;;;;;;22.88;17.60;;;;;;;11.58;57.66;95594.50;5070795;28;20032;-70
2022/11/10 08:18:31;;;;;;;24.83;17.45;;;;;;;11.56;57.48;95579.97;5051914;28;20465;-69
2022/11/10 08:21:00;;;;;;;25.00;18.05;;;;;;;11.62;57.91;95585.56;5052737;28;20051;-70
2022/11/10 08:23:27;;;;;;;22.80;17.80;;;;;;;11.68;56.95;95592.06;5052905;28;20051;-70
2022/11/10 08:25:53;;;;;;;23.77;17.58;;;;;;;11.90;56.30;95593.94;5070723;28;20106;-70
2022/11/10 08:28:18;;;;;;;24.88;17.90;;;;;;;11.82;56.43;95596.25;5069332;28;20036;-70
2022/11/10 08:30:45;;;;;;;21.92;16.23;;;;;;;11.97;55.91;95589.06;5052786;28;20037;-69
2022/11/10 08:33:12;;;;;;;20.02;16.40;;;;;;;12.11;55.11;95591.44;5052661;28;20131;-70
2022/11/10 08:35:42;;;;;;;24.10;17.40;;;;;;;12.14;55.68;95604.22;5046240;28;20021;-69
2022/11/10 08:38:28;;;;;;;25.52;18.13;;;;;;;12.16;55.81;95604.13;5029006;28;20032;-69
2022/11/10 08:40:54;;;;;;;23.50;16.08;;;;;;;11.94;55.74;95608.34;5070607;28;20048;-70
2022/11/10 08:43:20;;;;;;;24.98;18.35;;;;;;;11.84;56.23;95605.59;5058112;28;20064;-71
2022/11/10 08:45:45;;;;;;;21.90;16.80;;;;;;;12.05;55.86;95610.16;5066706;28;20044;-70
2022/11/10 08:48:12;;;;;;;23.20;17.38;;;;;;;12.18;55.71;95602.25;5064883;28;20032;-70
2022/11/10 08:50:38;;;;;;;19.55;15.82;;;;;;;12.25;55.94;95604.22;5065130;28;20544;-70
2022/11/10 08:53:15;;;;;;;24.63;18.38;;;;;;;12.26;55.43;95605.91;5048728;28;20052;-71
2022/11/10 08:55:40;;;;;;;25.23;17.77;;;;;;;12.24;55.80;95601.75;5064496;28;20025;-71
2022/11/10 08:58:07;;;;;;;24.38;18.75;;;;;;;12.08;55.93;95605.53;5047468;28;20032;-70
2022/11/10 09:00:33;;;;;;;27.77;19.20;;;;;;;11.93;56.19;95609.31;5048190;28;20115;-71
2022/11/10 09:03:03;;;;;;;24.45;19.02;;;;;;;12.16;56.23;95609.34;5056785;28;20029;-70
2022/11/10 09:05:29;;;;;;;27.73;20.13;;;;;;;12.22;56.68;95603.66;5060892;28;20025;-71
2022/11/10 09:07:54;;;;;;;24.95;18.42;;;;;;;12.02;56.61;95605.19;5055020;28;20040;-70
2022/11/10 09:10:20;;;;;;;32.33;22.25;;;;;;;11.77;58.04;95599.19;5045398;28;20544;-71
2022/11/10 09:12:46;;;;;;;36.00;23.67;;;;;;;12.02;58.32;95613.00;5029980;28;20036;-70
2022/11/10 09:15:11;;;;;;;32.22;21.90;;;;;;;11.73;58.52;95597.78;5043462;28;20037;-70
2022/11/10 09:17:37;;;;;;;33.85;23.88;;;;;;;11.65;59.31;95609.69;5054653;28;20089;-70
2022/11/10 09:20:04;;;;;;;32.67;21.98;;;;;;;11.90;58.61;95609.53;5059921;28;20111;-70
2022/11/10 09:22:29;;;;;;;29.52;21.73;;;;;;;11.99;58.05;95585.41;5063188;28;20046;-70
2022/11/10 09:24:55;;;;;;;30.17;22.00;;;;;;;11.99;58.04;95585.41;5047022;28;20402;-70
2022/11/10 09:27:20;;;;;;;31.30;22.48;;;;;;;12.29;57.83;95604.84;5061706;28;20376;-70
2022/11/10 09:29:46;;;;;;;32.65;23.00;;;;;;;12.10;58.51;95612.41;5065006;28;20472;-70
2022/11/10 09:32:11;;;;;;;29.23;22.92;;;;;;;12.28;57.98;95590.16;5063130;28;20036;-71
2022/11/10 09:34:36;;;;;;;31.52;22.48;;;;;;;12.43;57.46;95591.56;5061341;28;20024;-71
2022/11/10 09:37:02;;;;;;;35.05;24.35;;;;;;;12.33;58.05;95600.22;5067282;28;20043;-71
2022/11/10 09:39:28;;;;;;;35.05;24.75;;;;;;;12.52;57.58;95593.47;5046110;28;20543;-70
2022/11/10 09:41:53;;;;;;;33.10;24.05;;;;;;;12.74;57.24;95594.38;5062661;28;20037;-70
2022/11/10 09:44:50;;;;;;;36.38;25.25;;;;;;;12.47;57.93;95592.97;5062448;28;20494;-70
2022/11/10 09:47:22;;;;;;;40.72;25.83;;;;;;;12.64;57.15;95580.41;5064429;28;20040;-70
2022/11/10 09:49:53;;;;;;;37.15;25.15;;;;;;;12.68;57.45;95587.06;5063302;28;20035;-70
2022/11/10 09:52:19;;;;;;;38.60;26.60;;;;;;;12.83;57.43;95585.00;5042892;28;20025;-70
2022/11/10 09:54:58;;;;;;;35.80;24.90;;;;;;;12.70;57.21;95577.31;5063401;28;20029;-71
2022/11/10 09:57:24;;;;;;;43.25;28.88;;;;;;;12.73;57.13;95571.84;5062193;28;20478;-70
2022/11/10 09:59:50;;;;;;;42.83;29.65;;;;;;;12.87;57.08;95582.03;5063794;28;20033;-70
2022/11/10 10:02:23;;;;;;;42.78;28.90;;;;;;;12.96;56.95;95578.69;5046010;28;20086;-70
2022/11/10 10:04:57;;;;;;;45.20;30.70;;;;;;;13.13;56.57;95585.16;5065244;28;20226;-71
2022/11/10 10:07:44;;;;;;;43.25;28.73;;;;;;;12.89;56.70;95582.72;5064588;28;20025;-72
2022/11/10 10:10:30;;;;;;;50.65;32.83;;;;;;;12.56;57.49;95572.38;5065069;28;20098;-70
2022/11/10 10:12:55;;;;;;;45.72;31.77;;;;;;;12.89;56.82;95576.69;5028937;28;20680;-71
2022/11/10 10:15:34;;;;;;;45.53;29.80;;;;;;;13.08;56.46;95574.25;5065791;28;20041;-71
2022/11/10 10:18:12;;;;;;;44.15;31.38;;;;;;;12.97;56.79;95575.13;5062600;28;20466;-71
2022/11/10 10:20:43;;;;;;;49.17;33.90;;;;;;;13.12;56.17;95582.66;5064012;28;20384;-71
2022/11/10 10:23:36;;;;;;;48.65;33.55;;;;;;;12.97;56.52;95569.91;5062825;28;20383;-70
2022/11/10 10:26:02;;;;;;;48.50;32.90;;;;;;;13.25;55.94;95578.09;5050392;28;20036;-70
2022/11/10 10:28:36;;;;;;;51.72;34.95;;;;;;;13.27;55.77;95572.81;5046297;28;20114;-71
2022/11/10 10:31:23;;;;;;;55.50;35.35;;;;;;;13.18;56.22;95576.97;5045146;28;20052;-71
2022/11/10 10:33:49;;;;;;;55.53;36.38;;;;;;;13.39;55.92;95572.63;5064712;28;20103;-71
2022/11/10 10:36:23;;;;;;;51.42;33.42;;;;;;;13.34;55.57;95561.72;5046356;28;20036;-71
2022/11/10 10:38:50;;;;;;;46.92;33.03;;;;;;;13.30;55.96;95564.72;5064206;28;20036;-71
2022/11/10 10:41:24;;;;;;;44.33;31.15;;;;;;;13.55;55.63;95563.53;5050666;28;20094;-71
2022/11/10 10:43:51;;;;;;;49.42;34.25;;;;;;;13.72;54.98;95565.56;5057781;28;20032;-70
2022/11/10 10:46:19;;;;;;;50.70;35.50;;;;;;;13.78;54.78;95565.03;5042304;28;20532;-71
2022/11/10 10:48:44;;;;;;;56.38;37.55;;;;;;;13.69;55.14;95563.22;5054960;28;20404;-71
2022/11/10 10:51:11;;;;;;;56.78;36.80;;;;;;;13.54;54.76;95551.41;5062697;28;20542;-71
2022/11/10 10:53:46;;;;;;;56.38;36.65;;;;;;;13.74;54.79;95558.44;5027504;28;20510;-71
2022/11/10 10:56:21;;;;;;;54.45;37.00;;;;;;;13.83;54.50;95560.28;5038823;28;20041;-71
2022/11/10 10:58:57;;;;;;;50.65;35.00;;;;;;;13.83;54.60;95557.66;5042642;28;20129;-70
2022/11/10 11:01:24;;;;;;;61.60;35.75;;;;;;;13.80;54.45;95557.94;5028363;28;20124;-70
2022/11/10 11:03:50;;;;;;;61.17;37.63;;;;;;;13.75;54.95;95554.88;5049649;28;20032;-71
2022/11/10 11:06:16;;;;;;;57.38;35.63;;;;;;;13.98;54.63;95549.47;5045600;28;20031;-70
2022/11/10 11:09:16;;;;;;;51.30;35.72;;;;;;;14.17;53.37;95541.75;5063830;28;20040;-71
2022/11/10 11:11:43;;;;;;;56.67;35.77;;;;;;;14.21;53.46;95544.94;5047945;28;20028;-71
2022/11/10 11:14:25;;;;;;;53.10;35.70;;;;;;;13.88;54.15;95530.34;5029441;28;20126;-71
2022/11/10 11:16:53;;;;;;;53.17;35.65;;;;;;;13.92;54.07;95539.56;5050476;28;20102;-71
2022/11/10 11:19:20;;;;;;;53.05;34.95;;;;;;;13.77;54.71;95545.13;5060835;28;20395;-71
2022/11/10 11:21:45;;;;;;;48.65;32.88;;;;;;;13.95;53.67;95532.28;5061153;28;20032;-71
2022/11/10 11:24:20;;;;;;;51.83;32.90;;;;;;;14.00;53.89;95532.72;5065230;28;20039;-71
2022/11/10 11:26:51;;;;;;;52.33;34.08;;;;;;;14.20;53.92;95528.41;5060150;28;20036;-71
2022/11/10 11:29:39;;;;;;;49.20;33.53;;;;;;;14.18;54.03;95519.91;5064505;28;20024;-71
2022/11/10 11:32:30;;;;;;;51.08;34.10;;;;;;;14.18;53.63;95521.66;5061964;28;20079;-71
2022/11/10 11:35:26;;;;;;;47.35;31.85;;;;;;;14.20;53.71;95524.97;5046133;28;20064;-72
2022/11/10 11:38:09;;;;;;;48.85;34.38;;;;;;;14.21;53.56;95514.41;5045161;28;20168;-71